Accueil
METAR-TAF:

METAR-TAF

Aéroports :

Ostende, Belgique

Aéroport d'Ostende-Bruges

latitude: 51-12N, longitude: 002-52E, altitude: 4 m

Observation

Le bulletin a été fait il y a 24 minutes, à 16:20 UTC
Vent 18 kt de ouest/sud-ouest
Température 18°C
Humidité 59%
Pression 1019 hPa
Visibilité 10 km ou plus
Quelques nuages à une hauteur de 3000 ft

METAR: EBOS 191620Z 25018KT 9999 FEW030 18/10 Q1019 NOSIG

Heure: 18:44 (16:44 UTC)

Prévision

Le bulletin a été fait il y a 5 heures et 34 minutes, à 11:10 UTC
Prévision valable du 19 à 12 UTC au 20 à 18 UTC
Vent 16 kt de ouest/sud-ouest avec des rafales jusqu'à 27 kt
Visibilité 10 km ou plus
Nuages épars à une hauteur de 4000 ft
Probabilité 30% :
Temporairement
du 19 à 16 UTC au 19 à 20 UTC
averses de pluie
Evoluant progressivement
du 19 à 19 UTC au 19 à 21 UTC
Vent 15 kt de ouest/nord-ouest

TAF: EBOS 191110Z 1912/2018 25016G27KT 9999 SCT040 PROB30 TEMPO 1916/1920 SHRA BECMG 1919/1921 29015KT

Observations et prévisions météorologiques de plus de 4000 aéroports (messages METAR et TAF).

Les stations disponibles sont représentées par des disques jaunes et rouges sur la carte.

Passer la souris dessus pour voir le nom de la station.

Cliquer dessus pour voir les observations et prévisions météorologiques.

Pour changer de carte: cliquez sur les boutons verts avec une croix noire pour zoomer, sur le bouton vert avec un tiret pour effectuer un zoom arrière, ou sur les flèches vertes pour les cartes adjacentes.


METAR-TAF: